Time;durP1;ratioP1;P1;durP2;ratioP2;P2;SDS_P1;SDS_P2;PMS_P1;PMS_P2;Temp;Humidity;BMP_temperature;BMP_pressure;BME280_temperature;BME280_humidity;BME280_pressure;Samples;Min_cycle;Max_cycle;Signal;HPM_P1;HPM_P2
2023/09/23 00:01:46;;;;;;;8.57;3.17;;;;;;;;;;5021477;28;20030;-66
2023/09/23 00:04:12;;;;;;;8.95;3.67;;;;;;;;;;5015142;28;20584;-66
2023/09/23 00:06:38;;;;;;;6.75;2.70;;;;;;;;;;5017341;28;20437;-66
2023/09/23 00:09:04;;;;;;;6.82;3.72;;;;;;;;;;5031546;28;20030;-66
2023/09/23 00:11:31;;;;;;;7.90;3.90;;;;;;;;;;5022795;28;20022;-66
2023/09/23 00:13:57;;;;;;;7.68;3.35;;;;;;;;;;5016769;28;20029;-66
2023/09/23 00:16:23;;;;;;;9.38;3.63;;;;;;;;;;5015468;28;20033;-66
2023/09/23 00:18:51;;;;;;;6.82;3.60;;;;;;;;;;5029987;28;20026;-66
2023/09/23 00:21:17;;;;;;;10.02;3.53;;;;;;;;;;5017164;28;20053;-66
2023/09/23 00:23:45;;;;;;;8.65;4.13;;;;;;;;;;5020028;28;20037;-66
2023/09/23 00:26:14;;;;;;;8.02;4.00;;;;;;;;;;5016450;28;20489;-66
2023/09/23 00:28:40;;;;;;;11.18;4.03;;;;;;;;;;5020729;28;20040;-66
2023/09/23 00:31:11;;;;;;;9.18;4.50;;;;;;;;;;5015922;28;20032;-66
2023/09/23 00:33:37;;;;;;;11.02;3.58;;;;;;;;;;5020116;28;20115;-66
2023/09/23 00:36:05;;;;;;;7.30;3.47;;;;;;;;;;5018202;28;20422;-70
2023/09/23 00:38:32;;;;;;;8.77;4.78;;;;;;;;;;5020089;28;20046;-67
2023/09/23 00:40:58;;;;;;;9.18;3.88;;;;;;;;;;5020951;28;20496;-67
2023/09/23 00:43:24;;;;;;;12.73;4.53;;;;;;;;;;5020390;28;20086;-66
2023/09/23 00:45:54;;;;;;;9.43;4.72;;;;;;;;;;5023831;28;20037;-66
2023/09/23 00:48:22;;;;;;;10.30;5.95;;;;;;;;;;5015244;28;20085;-66
2023/09/23 00:50:48;;;;;;;11.70;5.10;;;;;;;;;;5015544;28;20091;-66
2023/09/23 00:53:15;;;;;;;8.75;5.40;;;;;;;;;;5019276;28;20363;-66
2023/09/23 00:55:47;;;;;;;11.52;4.97;;;;;;;;;;5025157;28;20466;-66
2023/09/23 00:58:20;;;;;;;10.23;4.07;;;;;;;;;;5022017;28;20030;-66
2023/09/23 01:00:46;;;;;;;11.73;5.30;;;;;;;;;;5015359;28;20052;-66
2023/09/23 01:03:13;;;;;;;15.43;5.32;;;;;;;;;;5019373;28;20421;-66
2023/09/23 01:05:40;;;;;;;10.30;5.18;;;;;;;;;;5022969;28;20440;-66
2023/09/23 01:08:07;;;;;;;10.50;4.93;;;;;;;;;;5016164;28;20079;-66
2023/09/23 01:10:33;;;;;;;13.55;4.47;;;;;;;;;;5020992;28;20075;-66
2023/09/23 01:12:59;;;;;;;11.15;4.75;;;;;;;;;;5022211;28;20068;-66
2023/09/23 01:15:28;;;;;;;12.90;4.72;;;;;;;;;;5025114;28;20030;-66
2023/09/23 01:17:54;;;;;;;13.95;4.63;;;;;;;;;;5015958;28;20026;-66
2023/09/23 01:20:21;;;;;;;9.50;4.18;;;;;;;;;;5017929;28;20063;-66
2023/09/23 01:22:47;;;;;;;12.43;4.75;;;;;;;;;;5020693;28;20186;-66
2023/09/23 01:25:18;;;;;;;7.60;4.60;;;;;;;;;;5015533;28;20031;-66
2023/09/23 01:27:44;;;;;;;8.13;3.83;;;;;;;;;;5018215;28;20237;-67
2023/09/23 01:30:12;;;;;;;10.55;4.50;;;;;;;;;;5019898;28;20023;-70
2023/09/23 01:32:46;;;;;;;10.18;3.80;;;;;;;;;;5015000;28;20494;-66
2023/09/23 01:35:15;;;;;;;11.95;4.38;;;;;;;;;;5023281;28;20018;-66
2023/09/23 01:37:41;;;;;;;6.80;3.80;;;;;;;;;;5048824;28;20053;-66
2023/09/23 01:40:08;;;;;;;8.60;3.72;;;;;;;;;;5027471;28;20058;-66
2023/09/23 01:42:35;;;;;;;9.68;4.65;;;;;;;;;;5029214;28;20430;-66
2023/09/23 01:45:03;;;;;;;8.82;3.50;;;;;;;;;;5028197;28;20470;-67
2023/09/23 01:47:30;;;;;;;9.35;4.20;;;;;;;;;;5021415;28;20018;-66
2023/09/23 01:49:56;;;;;;;7.72;4.25;;;;;;;;;;5026350;28;20075;-66
2023/09/23 01:52:22;;;;;;;10.85;3.28;;;;;;;;;;5018169;28;20025;-66
2023/09/23 01:54:48;;;;;;;11.90;5.15;;;;;;;;;;5024190;28;20041;-66
2023/09/23 01:57:16;;;;;;;7.60;3.97;;;;;;;;;;5018130;28;20033;-66
2023/09/23 01:59:43;;;;;;;10.32;3.28;;;;;;;;;;5027360;28;20037;-66
2023/09/23 02:02:09;;;;;;;14.90;3.90;;;;;;;;;;5015820;28;20321;-66
2023/09/23 02:04:40;;;;;;;9.13;3.65;;;;;;;;;;5020342;28;20132;-66
2023/09/23 02:07:13;;;;;;;10.63;4.45;;;;;;;;;;5018197;28;20028;-66
2023/09/23 02:09:39;;;;;;;9.18;4.03;;;;;;;;;;5022054;28;20378;-66
2023/09/23 02:12:06;;;;;;;8.50;3.47;;;;;;;;;;5022912;28;20079;-65
2023/09/23 02:14:32;;;;;;;10.35;3.72;;;;;;;;;;5017363;28;20036;-66
2023/09/23 02:16:58;;;;;;;7.82;4.13;;;;;;;;;;5024013;28;20404;-66
2023/09/23 02:19:27;;;;;;;8.85;3.85;;;;;;;;;;5017520;28;20052;-66
2023/09/23 02:21:53;;;;;;;10.90;3.60;;;;;;;;;;5019433;28;20389;-66
2023/09/23 02:24:20;;;;;;;11.27;4.57;;;;;;;;;;5017371;28;20582;-66
2023/09/23 02:26:46;;;;;;;10.32;3.63;;;;;;;;;;5018100;28;20033;-66
2023/09/23 02:29:14;;;;;;;8.02;3.58;;;;;;;;;;5017688;28;20448;-66
2023/09/23 02:31:42;;;;;;;11.40;3.35;;;;;;;;;;5020234;28;20532;-66
2023/09/23 02:34:10;;;;;;;10.88;3.70;;;;;;;;;;5024593;28;20025;-65
2023/09/23 02:36:37;;;;;;;7.80;3.15;;;;;;;;;;5021039;28;20553;-66
2023/09/23 02:39:04;;;;;;;6.88;4.03;;;;;;;;;;5020230;28;20053;-66
2023/09/23 02:41:32;;;;;;;12.05;3.53;;;;;;;;;;5036905;28;20110;-66
2023/09/23 02:44:02;;;;;;;5.78;3.10;;;;;;;;;;5019927;28;20036;-66
2023/09/23 02:46:28;;;;;;;10.88;3.50;;;;;;;;;;5011673;28;20037;-66
2023/09/23 02:48:54;;;;;;;7.22;3.38;;;;;;;;;;5018047;28;20047;-66
2023/09/23 02:51:21;;;;;;;8.07;3.35;;;;;;;;;;5014337;28;20087;-66
2023/09/23 02:53:47;;;;;;;8.10;3.60;;;;;;;;;;5018067;28;20040;-66
2023/09/23 02:56:13;;;;;;;9.70;3.33;;;;;;;;;;5021709;28;20040;-66
2023/09/23 02:58:40;;;;;;;9.88;4.22;;;;;;;;;;5026672;28;20453;-66
2023/09/23 03:01:09;;;;;;;12.57;3.42;;;;;;;;;;5010507;28;20649;-66
2023/09/23 03:03:40;;;;;;;10.80;3.30;;;;;;;;;;5022515;28;20087;-66
2023/09/23 03:06:10;;;;;;;7.75;3.47;;;;;;;;;;5022392;28;20132;-66
2023/09/23 03:08:43;;;;;;;11.68;3.92;;;;;;;;;;5014350;28;20037;-66
2023/09/23 03:11:11;;;;;;;7.57;2.92;;;;;;;;;;5017626;28;20036;-66
2023/09/23 03:13:39;;;;;;;11.07;3.83;;;;;;;;;;5019394;28;20083;-65
2023/09/23 03:16:08;;;;;;;12.05;3.47;;;;;;;;;;5021063;28;20036;-65
2023/09/23 03:19:25;;;;;;;3.92;2.97;;;;;;;;;;5022605;28;20385;-66
2023/09/23 03:21:24;;;;;;;8.90;3.53;;;;;;;;;;5015534;28;20401;-66
2023/09/23 03:23:50;;;;;;;5.97;2.92;;;;;;;;;;5020787;28;20128;-65
2023/09/23 03:26:18;;;;;;;9.38;3.47;;;;;;;;;;5018427;28;21050;-66
2023/09/23 03:28:46;;;;;;;12.85;3.35;;;;;;;;;;5011014;28;20381;-66
2023/09/23 03:31:14;;;;;;;6.70;2.97;;;;;;;;;;5013584;28;20201;-66
2023/09/23 03:33:42;;;;;;;13.35;3.85;;;;;;;;;;5011300;28;20023;-66
2023/09/23 03:36:14;;;;;;;5.72;3.03;;;;;;;;;;5015430;28;20127;-66
2023/09/23 03:38:41;;;;;;;9.25;3.65;;;;;;;;;;5015164;28;20049;-67
2023/09/23 03:41:07;;;;;;;6.63;3.78;;;;;;;;;;5019890;28;20051;-66
2023/09/23 03:43:33;;;;;;;10.98;2.88;;;;;;;;;;5022388;28;20037;-66
2023/09/23 03:45:59;;;;;;;14.32;3.80;;;;;;;;;;5019998;28;20038;-66
2023/09/23 03:48:28;;;;;;;6.00;2.85;;;;;;;;;;5016979;28;20117;-66
2023/09/23 03:50:55;;;;;;;9.02;3.63;;;;;;;;;;5015442;28;20126;-66
2023/09/23 03:53:22;;;;;;;6.63;4.53;;;;;;;;;;5028779;28;20506;-66
2023/09/23 03:55:49;;;;;;;9.60;3.05;;;;;;;;;;5051390;28;20105;-66
2023/09/23 03:58:19;;;;;;;8.63;3.78;;;;;;;;;;5008734;28;20022;-69
2023/09/23 04:00:45;;;;;;;6.38;2.95;;;;;;;;;;5023978;28;20040;-66
2023/09/23 04:03:11;;;;;;;10.00;3.80;;;;;;;;;;5013715;28;20022;-66
2023/09/23 04:05:37;;;;;;;8.40;2.95;;;;;;;;;;5031259;28;20026;-66
2023/09/23 04:08:04;;;;;;;14.52;4.57;;;;;;;;;;5024809;28;20470;-66
2023/09/23 04:10:30;;;;;;;9.77;2.95;;;;;;;;;;5024361;28;20083;-66
2023/09/23 04:12:56;;;;;;;7.93;3.38;;;;;;;;;;5022724;28;20381;-66
2023/09/23 04:15:24;;;;;;;9.57;3.50;;;;;;;;;;5016140;28;20025;-66
2023/09/23 04:17:50;;;;;;;8.57;3.17;;;;;;;;;;5016533;28;20037;-68
2023/09/23 04:20:17;;;;;;;9.32;3.30;;;;;;;;;;5021612;28;20030;-66
2023/09/23 04:22:46;;;;;;;8.50;3.72;;;;;;;;;;5014326;28;20100;-66
2023/09/23 04:25:16;;;;;;;7.00;3.45;;;;;;;;;;5018937;28;20325;-66
2023/09/23 04:27:42;;;;;;;8.25;4.10;;;;;;;;;;5019922;28;20036;-66
2023/09/23 04:30:09;;;;;;;8.32;3.20;;;;;;;;;;5026992;28;20540;-66
2023/09/23 04:32:38;;;;;;;8.52;3.85;;;;;;;;;;5024476;28;20030;-68
2023/09/23 04:35:05;;;;;;;7.68;3.65;;;;;;;;;;5021933;28;20033;-66
2023/09/23 04:37:36;;;;;;;7.20;3.47;;;;;;;;;;5023001;28;20036;-66
2023/09/23 04:40:06;;;;;;;10.48;3.65;;;;;;;;;;5024842;28;20405;-66
2023/09/23 04:42:32;;;;;;;5.43;3.35;;;;;;;;;;5022775;28;20404;-66
2023/09/23 04:44:58;;;;;;;9.35;2.97;;;;;;;;;;5024233;28;20533;-66
2023/09/23 04:47:24;;;;;;;9.75;3.33;;;;;;;;;;5015633;28;20029;-66
2023/09/23 04:49:50;;;;;;;8.48;3.15;;;;;;;;;;5036384;28;20018;-66
2023/09/23 04:52:16;;;;;;;7.65;3.33;;;;;;;;;;5021685;28;20018;-66
2023/09/23 04:54:43;;;;;;;7.18;3.10;;;;;;;;;;5031560;28;20500;-66
2023/09/23 04:57:09;;;;;;;5.90;3.50;;;;;;;;;;5027850;28;20029;-66
2023/09/23 04:59:36;;;;;;;7.18;3.30;;;;;;;;;;5025411;28;20119;-66
2023/09/23 05:02:03;;;;;;;8.77;3.08;;;;;;;;;;5026939;28;20666;-66
2023/09/23 05:04:29;;;;;;;7.55;3.50;;;;;;;;;;5020580;28;20094;-66
2023/09/23 05:06:56;;;;;;;10.77;4.57;;;;;;;;;;5018557;28;20033;-66
2023/09/23 05:09:23;;;;;;;3.92;2.90;;;;;;;;;;5018703;28;20171;-66
2023/09/23 05:11:52;;;;;;;8.25;3.20;;;;;;;;;;5017526;28;20103;-66
2023/09/23 05:14:18;;;;;;;7.68;3.08;;;;;;;;;;5022612;28;20151;-66
2023/09/23 05:16:44;;;;;;;8.90;3.10;;;;;;;;;;5019246;28;20288;-66
2023/09/23 05:19:11;;;;;;;11.30;3.92;;;;;;;;;;5022326;28;20025;-68
2023/09/23 05:21:37;;;;;;;11.05;3.35;;;;;;;;;;5021524;28;20060;-66
2023/09/23 05:24:04;;;;;;;7.47;3.03;;;;;;;;;;5023262;28;20034;-66
2023/09/23 05:26:33;;;;;;;6.30;3.55;;;;;;;;;;5020016;28;20453;-65
2023/09/23 05:28:59;;;;;;;7.80;3.50;;;;;;;;;;5021179;28;20033;-65
2023/09/23 05:31:25;;;;;;;8.18;4.13;;;;;;;;;;5021350;28;20532;-66
2023/09/23 05:33:51;;;;;;;12.45;3.70;;;;;;;;;;5017665;28;20151;-66
2023/09/23 05:36:20;;;;;;;5.95;2.70;;;;;;;;;;5023154;28;20033;-66
2023/09/23 05:38:47;;;;;;;9.38;3.53;;;;;;;;;;5015160;28;20081;-66
2023/09/23 05:41:14;;;;;;;5.07;2.75;;;;;;;;;;5024311;28;20034;-68
2023/09/23 05:43:40;;;;;;;14.05;3.67;;;;;;;;;;5024924;28;20036;-66
2023/09/23 05:46:09;;;;;;;21.65;3.63;;;;;;;;;;5037689;28;20042;-66
2023/09/23 05:48:35;;;;;;;9.63;2.78;;;;;;;;;;5023410;28;20776;-66
2023/09/23 05:51:05;;;;;;;8.38;2.83;;;;;;;;;;5019795;28;20087;-66
2023/09/23 05:53:33;;;;;;;9.07;3.38;;;;;;;;;;5029811;28;20029;-66
2023/09/23 05:55:59;;;;;;;6.15;2.85;;;;;;;;;;5020509;28;20088;-66
2023/09/23 05:58:25;;;;;;;6.65;3.42;;;;;;;;;;5022257;28;20037;-66
2023/09/23 06:00:52;;;;;;;6.53;3.10;;;;;;;;;;5024136;28;20401;-66
2023/09/23 06:03:18;;;;;;;8.95;3.92;;;;;;;;;;5017465;28;20030;-66
2023/09/23 06:05:44;;;;;;;5.25;2.53;;;;;;;;;;5018357;28;20032;-67
2023/09/23 06:08:13;;;;;;;8.27;3.20;;;;;;;;;;5020292;28;20033;-66
2023/09/23 06:10:40;;;;;;;5.35;2.60;;;;;;;;;;5016195;28;20071;-67
2023/09/23 06:13:07;;;;;;;11.48;3.65;;;;;;;;;;5023630;28;20068;-67
2023/09/23 06:15:33;;;;;;;6.90;2.85;;;;;;;;;;5019327;28;20049;-66
2023/09/23 06:18:00;;;;;;;7.05;3.22;;;;;;;;;;5016782;28;20037;-66
2023/09/23 06:20:26;;;;;;;8.45;2.95;;;;;;;;;;5014954;28;20128;-68
2023/09/23 06:22:52;;;;;;;6.45;2.80;;;;;;;;;;5017363;28;20488;-67
2023/09/23 06:25:18;;;;;;;9.73;3.88;;;;;;;;;;5015306;28;20044;-67
2023/09/23 06:27:45;;;;;;;7.18;2.80;;;;;;;;;;5020807;28;20543;-67
2023/09/23 06:30:13;;;;;;;6.70;2.80;;;;;;;;;;5020010;28;20021;-67
2023/09/23 06:32:39;;;;;;;9.25;2.83;;;;;;;;;;5016631;28;20036;-67
2023/09/23 06:35:05;;;;;;;5.63;3.60;;;;;;;;;;5022277;28;20075;-67
2023/09/23 06:37:31;;;;;;;8.68;3.63;;;;;;;;;;5022590;28;20163;-67
2023/09/23 06:39:57;;;;;;;8.45;3.15;;;;;;;;;;5019144;28;20055;-67
2023/09/23 06:42:23;;;;;;;8.00;3.00;;;;;;;;;;5014167;28;21049;-67
2023/09/23 06:44:51;;;;;;;9.77;3.80;;;;;;;;;;5016876;28;20045;-67
2023/09/23 06:47:17;;;;;;;6.90;3.25;;;;;;;;;;5008444;28;20033;-67
2023/09/23 06:49:43;;;;;;;9.52;3.08;;;;;;;;;;5016644;28;20025;-67
2023/09/23 06:52:09;;;;;;;11.23;2.83;;;;;;;;;;5020639;28;20734;-68
2023/09/23 06:54:36;;;;;;;6.93;2.92;;;;;;;;;;5021393;28;20026;-68
2023/09/23 06:57:02;;;;;;;11.25;4.38;;;;;;;;;;5020611;28;20025;-68
2023/09/23 06:59:28;;;;;;;7.53;2.70;;;;;;;;;;5014374;28;20022;-68
2023/09/23 07:01:54;;;;;;;7.68;3.03;;;;;;;;;;5015384;28;20114;-68
2023/09/23 07:04:20;;;;;;;6.45;3.50;;;;;;;;;;5014702;28;20470;-68
2023/09/23 07:06:46;;;;;;;8.30;2.85;;;;;;;;;;5022733;28;20017;-68
2023/09/23 07:09:12;;;;;;;5.45;2.75;;;;;;;;;;5012335;28;20508;-68
2023/09/23 07:11:38;;;;;;;4.25;3.00;;;;;;;;;;5012475;28;20496;-72
2023/09/23 07:14:06;;;;;;;6.80;3.47;;;;;;;;;;5016925;28;20095;-69
2023/09/23 07:16:35;;;;;;;9.15;2.78;;;;;;;;;;5001476;28;20477;-71
2023/09/23 07:19:01;;;;;;;16.88;3.72;;;;;;;;;;5013033;28;20152;-72
2023/09/23 07:21:28;;;;;;;8.80;2.95;;;;;;;;;;5015483;28;20041;-74
2023/09/23 07:23:54;;;;;;;8.80;3.15;;;;;;;;;;5017012;28;20437;-74
2023/09/23 07:26:21;;;;;;;7.95;3.22;;;;;;;;;;5015233;28;20053;-72
2023/09/23 07:28:50;;;;;;;5.75;2.63;;;;;;;;;;5018684;28;20061;-74
2023/09/23 07:31:16;;;;;;;8.50;2.85;;;;;;;;;;5014240;28;20029;-70
2023/09/23 07:33:42;;;;;;;6.10;3.17;;;;;;;;;;5014183;28;20040;-72
2023/09/23 07:36:12;;;;;;;7.50;2.67;;;;;;;;;;5011614;28;20410;-72
2023/09/23 07:38:38;;;;;;;6.47;2.72;;;;;;;;;;5016777;28;20480;-72
2023/09/23 07:41:04;;;;;;;7.18;3.20;;;;;;;;;;5016375;28;20087;-73
2023/09/23 07:43:31;;;;;;;10.02;3.40;;;;;;;;;;5018026;28;20132;-72
2023/09/23 07:45:57;;;;;;;8.57;2.95;;;;;;;;;;5016654;28;20034;-73
2023/09/23 07:48:23;;;;;;;9.55;3.45;;;;;;;;;;5010100;28;20620;-72
2023/09/23 07:50:50;;;;;;;8.70;3.35;;;;;;;;;;5015327;28;20072;-72
2023/09/23 07:53:17;;;;;;;6.45;2.58;;;;;;;;;;5014984;28;20032;-72
2023/09/23 07:55:46;;;;;;;13.77;3.08;;;;;;;;;;5017585;28;20040;-72
2023/09/23 07:58:12;;;;;;;7.50;3.38;;;;;;;;;;5016737;28;20577;-72
2023/09/23 08:00:38;;;;;;;8.63;4.18;;;;;;;;;;5017816;28;20092;-72
2023/09/23 08:03:04;;;;;;;7.85;3.20;;;;;;;;;;5017598;28;20090;-71
2023/09/23 08:05:32;;;;;;;8.25;3.00;;;;;;;;;;5021495;28;20029;-71
2023/09/23 08:07:58;;;;;;;7.35;3.00;;;;;;;;;;5020310;28;20461;-72
2023/09/23 08:10:24;;;;;;;10.73;2.90;;;;;;;;;;5019677;28;20116;-70
2023/09/23 08:12:51;;;;;;;7.70;2.88;;;;;;;;;;5018036;28;20030;-71
2023/09/23 08:15:17;;;;;;;9.93;3.03;;;;;;;;;;5021597;28;20091;-71
2023/09/23 08:17:43;;;;;;;7.65;2.85;;;;;;;;;;5020719;28;20405;-72
2023/09/23 08:20:23;;;;;;;9.35;2.97;;;;;;;;;;5015894;28;20037;-72
2023/09/23 08:22:50;;;;;;;8.07;2.97;;;;;;;;;;5012763;28;20028;-71
2023/09/23 08:25:17;;;;;;;9.85;2.90;;;;;;;;;;5020649;28;20037;-73
2023/09/23 08:27:44;;;;;;;6.30;2.90;;;;;;;;;;5023030;28;20434;-69
2023/09/23 08:30:10;;;;;;;5.78;2.58;;;;;;;;;;5021975;28;20452;-70
2023/09/23 08:32:37;;;;;;;5.10;2.85;;;;;;;;;;5020373;28;20026;-71
2023/09/23 08:35:05;;;;;;;4.57;2.50;;;;;;;;;;5019063;28;20037;-71
2023/09/23 08:37:31;;;;;;;9.15;3.38;;;;;;;;;;5017084;28;20034;-70
2023/09/23 08:39:57;;;;;;;7.03;2.42;;;;;;;;;;5015927;28;20069;-70
2023/09/23 08:42:27;;;;;;;10.68;3.00;;;;;;;;;;5016198;28;21181;-70
2023/09/23 08:44:54;;;;;;;9.63;3.00;;;;;;;;;;5018504;28;20029;-70
2023/09/23 08:47:20;;;;;;;9.85;2.90;;;;;;;;;;5024314;28;20026;-71
2023/09/23 08:49:50;;;;;;;6.38;2.58;;;;;;;;;;5014245;28;20116;-70
2023/09/23 08:52:19;;;;;;;9.40;2.40;;;;;;;;;;5019346;28;20026;-70
2023/09/23 08:54:48;;;;;;;6.95;2.67;;;;;;;;;;5021708;28;20117;-70
2023/09/23 08:57:14;;;;;;;8.60;3.55;;;;;;;;;;5020300;28;20108;-70
2023/09/23 08:59:40;;;;;;;4.10;2.67;;;;;;;;;;5022994;28;20111;-70
2023/09/23 09:02:07;;;;;;;5.57;2.40;;;;;;;;;;5025359;28;20435;-70
2023/09/23 09:04:33;;;;;;;6.43;2.40;;;;;;;;;;5022938;28;20458;-70
2023/09/23 09:06:59;;;;;;;8.85;3.08;;;;;;;;;;5025440;28;20618;-69
2023/09/23 09:09:26;;;;;;;8.25;2.55;;;;;;;;;;5038239;28;20032;-70
2023/09/23 09:11:58;;;;;;;5.68;2.50;;;;;;;;;;5015182;28;20040;-70
2023/09/23 09:14:25;;;;;;;4.15;2.35;;;;;;;;;;5019018;28;20033;-70
2023/09/23 09:16:51;;;;;;;5.65;2.65;;;;;;;;;;5014192;28;20018;-70
2023/09/23 09:19:19;;;;;;;7.38;2.63;;;;;;;;;;5023194;28;20468;-69
2023/09/23 09:21:45;;;;;;;5.35;2.60;;;;;;;;;;5021703;28;20369;-69
2023/09/23 09:24:11;;;;;;;4.35;2.50;;;;;;;;;;5024753;28;20623;-69
2023/09/23 09:26:40;;;;;;;3.85;2.60;;;;;;;;;;5019227;28;20079;-69
2023/09/23 09:29:07;;;;;;;6.20;2.78;;;;;;;;;;5020806;28;20033;-70
2023/09/23 09:31:34;;;;;;;5.47;2.60;;;;;;;;;;5022049;28;20061;-69
2023/09/23 09:34:11;;;;;;;7.50;3.70;;;;;;;;;;5021177;28;20051;-69
2023/09/23 09:36:41;;;;;;;7.25;3.08;;;;;;;;;;5021210;28;20039;-70
2023/09/23 09:39:08;;;;;;;5.68;3.10;;;;;;;;;;5017150;28;20475;-69
2023/09/23 09:41:48;;;;;;;5.28;3.00;;;;;;;;;;5020203;28;20434;-69
2023/09/23 09:44:15;;;;;;;12.43;2.85;;;;;;;;;;5017475;28;20116;-69
2023/09/23 09:46:43;;;;;;;6.88;2.80;;;;;;;;;;5022408;28;20397;-69
2023/09/23 09:49:10;;;;;;;4.85;2.65;;;;;;;;;;5023428;28;20091;-69
2023/09/23 09:51:37;;;;;;;5.82;3.03;;;;;;;;;;5020453;28;20025;-69
2023/09/23 09:54:04;;;;;;;6.57;2.97;;;;;;;;;;5021607;28;20397;-69
2023/09/23 09:56:30;;;;;;;5.22;2.42;;;;;;;;;;5023889;28;20501;-69
2023/09/23 09:58:59;;;;;;;8.02;3.47;;;;;;;;;;5024870;28;20029;-69
2023/09/23 10:01:25;;;;;;;7.68;2.60;;;;;;;;;;5024402;28;20037;-69
2023/09/23 10:03:54;;;;;;;8.10;3.00;;;;;;;;;;5017702;28;20033;-70
2023/09/23 10:06:26;;;;;;;6.18;2.63;;;;;;;;;;5022885;28;20080;-69
2023/09/23 10:08:53;;;;;;;5.63;2.33;;;;;;;;;;5023844;28;20025;-69
2023/09/23 10:11:31;;;;;;;6.60;2.58;;;;;;;;;;5021344;28;20029;-70
2023/09/23 10:13:57;;;;;;;4.78;2.30;;;;;;;;;;5022861;28;20029;-69
2023/09/23 10:16:29;;;;;;;5.20;2.55;;;;;;;;;;5021938;28;20037;-69
2023/09/23 10:18:56;;;;;;;6.63;2.47;;;;;;;;;;5020818;28;20079;-69
2023/09/23 10:21:29;;;;;;;7.28;2.78;;;;;;;;;;5022529;28;20025;-69
2023/09/23 10:23:56;;;;;;;5.80;2.38;;;;;;;;;;5019420;28;20056;-68
2023/09/23 10:26:23;;;;;;;6.47;2.88;;;;;;;;;;5022186;28;20027;-69
2023/09/23 10:28:59;;;;;;;4.88;2.80;;;;;;;;;;5017966;28;20032;-68
2023/09/23 10:31:26;;;;;;;6.43;2.40;;;;;;;;;;5017695;28;20040;-69
2023/09/23 10:33:54;;;;;;;6.25;3.10;;;;;;;;;;5024834;28;20025;-69
2023/09/23 10:36:21;;;;;;;4.38;2.10;;;;;;;;;;5020189;28;20025;-69
2023/09/23 10:38:48;;;;;;;3.67;2.15;;;;;;;;;;5034259;28;20437;-69
2023/09/23 10:41:14;;;;;;;6.18;2.17;;;;;;;;;;5016456;28;20440;-69
2023/09/23 10:43:40;;;;;;;8.52;2.33;;;;;;;;;;5020126;28;20528;-69
2023/09/23 10:46:06;;;;;;;6.10;2.40;;;;;;;;;;5018047;28;20109;-70
2023/09/23 10:48:33;;;;;;;3.88;2.15;;;;;;;;;;5018567;28;20044;-69
2023/09/23 10:51:00;;;;;;;5.45;2.60;;;;;;;;;;5015291;28;20615;-69
2023/09/23 10:53:29;;;;;;;2.80;2.05;;;;;;;;;;5017161;28;20025;-68
2023/09/23 10:55:56;;;;;;;4.55;2.20;;;;;;;;;;5018366;28;20040;-69
2023/09/23 10:58:22;;;;;;;4.00;2.13;;;;;;;;;;5014036;28;20144;-69
2023/09/23 11:00:50;;;;;;;4.88;2.30;;;;;;;;;;5019729;28;20048;-69
2023/09/23 11:03:17;;;;;;;3.25;2.33;;;;;;;;;;5019677;28;20038;-69
2023/09/23 11:05:44;;;;;;;3.70;2.53;;;;;;;;;;5018027;28;20025;-68
2023/09/23 11:08:11;;;;;;;7.82;2.47;;;;;;;;;;5048652;28;20068;-69
2023/09/23 11:10:40;;;;;;;5.88;2.45;;;;;;;;;;5022728;28;20038;-68
2023/09/23 11:13:08;;;;;;;3.35;2.10;;;;;;;;;;5015338;28;20049;-69
2023/09/23 11:15:36;;;;;;;4.10;2.38;;;;;;;;;;5017563;28;20022;-69
2023/09/23 11:18:02;;;;;;;4.55;2.15;;;;;;;;;;5017567;28;20401;-69
2023/09/23 11:20:32;;;;;;;5.13;2.10;;;;;;;;;;5020292;28;20087;-69
2023/09/23 11:22:59;;;;;;;3.83;2.00;;;;;;;;;;5019203;28;20129;-69
2023/09/23 11:25:28;;;;;;;12.90;2.70;;;;;;;;;;5017798;28;20033;-68
2023/09/23 11:27:57;;;;;;;5.47;2.30;;;;;;;;;;5016952;28;20083;-68
2023/09/23 11:30:23;;;;;;;6.47;2.40;;;;;;;;;;5018150;28;20033;-69
2023/09/23 11:32:51;;;;;;;5.75;2.25;;;;;;;;;;5019816;28;20473;-69
2023/09/23 11:35:17;;;;;;;5.32;2.60;;;;;;;;;;5022338;28;20048;-69
2023/09/23 11:37:44;;;;;;;5.60;2.47;;;;;;;;;;5018405;28;20474;-69
2023/09/23 11:40:18;;;;;;;3.95;2.38;;;;;;;;;;5024492;28;20049;-69
2023/09/23 11:42:44;;;;;;;6.90;2.28;;;;;;;;;;5019043;28;20036;-68
2023/09/23 11:45:12;;;;;;;4.78;2.30;;;;;;;;;;5017809;28;20065;-69
2023/09/23 11:47:38;;;;;;;4.75;2.40;;;;;;;;;;5018881;28;20052;-68
2023/09/23 11:50:05;;;;;;;5.60;2.40;;;;;;;;;;5016967;28;20030;-68
2023/09/23 11:52:32;;;;;;;7.40;2.92;;;;;;;;;;5021231;28;20060;-69
2023/09/23 11:54:58;;;;;;;7.90;2.38;;;;;;;;;;5016362;28;20033;-69
2023/09/23 11:57:25;;;;;;;4.90;2.75;;;;;;;;;;5015002;28;20040;-68
2023/09/23 11:59:52;;;;;;;6.15;2.55;;;;;;;;;;5016228;28;20033;-68
2023/09/23 12:02:19;;;;;;;6.10;2.50;;;;;;;;;;5021168;28;20029;-68
2023/09/23 12:04:46;;;;;;;5.15;2.53;;;;;;;;;;5021060;28;20035;-68
2023/09/23 12:07:14;;;;;;;4.28;2.28;;;;;;;;;;5010177;28;21331;-69
2023/09/23 12:09:40;;;;;;;5.05;3.33;;;;;;;;;;5015208;28;20037;-68
2023/09/23 12:12:07;;;;;;;3.88;2.65;;;;;;;;;;5022802;28;20017;-71
2023/09/23 12:14:34;;;;;;;3.30;2.13;;;;;;;;;;5014637;28;20524;-69
2023/09/23 12:17:00;;;;;;;6.25;2.33;;;;;;;;;;5016465;28;20032;-69
2023/09/23 12:19:26;;;;;;;5.55;2.85;;;;;;;;;;5022341;28;20116;-68
2023/09/23 12:21:52;;;;;;;4.60;2.38;;;;;;;;;;5012388;28;20034;-68
2023/09/23 12:24:18;;;;;;;10.05;2.90;;;;;;;;;;5021471;28;20542;-69
2023/09/23 12:26:44;;;;;;;7.10;2.63;;;;;;;;;;5008933;28;20585;-69
2023/09/23 12:29:10;;;;;;;5.75;2.60;;;;;;;;;;5019882;28;20025;-69
2023/09/23 12:31:37;;;;;;;6.15;2.65;;;;;;;;;;5017675;28;20493;-68
2023/09/23 12:34:03;;;;;;;6.13;2.35;;;;;;;;;;5017940;28;20030;-70
2023/09/23 12:36:29;;;;;;;4.30;2.40;;;;;;;;;;5020721;28;20033;-69
2023/09/23 12:38:57;;;;;;;11.52;4.13;;;;;;;;;;5018975;28;20568;-69
2023/09/23 12:41:23;;;;;;;4.85;2.45;;;;;;;;;;5021089;28;20079;-67
2023/09/23 12:43:49;;;;;;;5.72;2.85;;;;;;;;;;5018273;28;20036;-67
2023/09/23 12:46:15;;;;;;;7.43;2.95;;;;;;;;;;5018565;28;20120;-67
2023/09/23 12:48:41;;;;;;;7.28;2.83;;;;;;;;;;5020931;28;20029;-67
2023/09/23 12:51:09;;;;;;;5.40;2.30;;;;;;;;;;5019192;28;20040;-67
2023/09/23 12:53:35;;;;;;;8.35;2.83;;;;;;;;;;5024400;28;20041;-66
2023/09/23 12:56:01;;;;;;;5.97;2.25;;;;;;;;;;5020938;28;20398;-66
2023/09/23 12:58:27;;;;;;;5.63;2.50;;;;;;;;;;5036674;28;20087;-67
2023/09/23 13:00:53;;;;;;;4.90;3.17;;;;;;;;;;5024595;28;20037;-67
2023/09/23 13:03:20;;;;;;;5.50;2.72;;;;;;;;;;5021108;28;20086;-67
2023/09/23 13:05:46;;;;;;;5.03;2.53;;;;;;;;;;5022859;28;20533;-67
2023/09/23 13:08:13;;;;;;;5.35;2.92;;;;;;;;;;5016642;28;20033;-68
2023/09/23 13:10:39;;;;;;;5.90;3.47;;;;;;;;;;5021606;28;20026;-67
2023/09/23 13:13:05;;;;;;;3.97;2.53;;;;;;;;;;5018073;28;20143;-67
2023/09/23 13:15:31;;;;;;;7.15;3.15;;;;;;;;;;5023980;28;20481;-68
2023/09/23 13:17:59;;;;;;;5.20;2.28;;;;;;;;;;5018342;28;20038;-68
2023/09/23 13:20:25;;;;;;;7.68;3.20;;;;;;;;;;5028334;28;20049;-68
2023/09/23 13:22:51;;;;;;;3.92;2.08;;;;;;;;;;5009897;28;20033;-68
2023/09/23 13:25:18;;;;;;;6.70;2.38;;;;;;;;;;5022086;28;20029;-68
2023/09/23 13:27:44;;;;;;;6.50;2.53;;;;;;;;;;5016420;28;20032;-69
2023/09/23 13:30:10;;;;;;;7.90;3.33;;;;;;;;;;5017312;28;20547;-68
2023/09/23 13:32:38;;;;;;;7.70;2.83;;;;;;;;;;5006284;28;20080;-68
2023/09/23 13:35:05;;;;;;;8.55;2.58;;;;;;;;;;5017965;28;20037;-68
2023/09/23 13:37:31;;;;;;;7.68;2.50;;;;;;;;;;5017088;28;20057;-68
2023/09/23 13:39:58;;;;;;;9.65;3.03;;;;;;;;;;5021260;28;20049;-69
2023/09/23 13:42:24;;;;;;;5.88;2.40;;;;;;;;;;5015309;28;20554;-68
2023/09/23 13:44:50;;;;;;;6.80;2.53;;;;;;;;;;5021656;28;20117;-69
2023/09/23 13:47:17;;;;;;;4.88;2.38;;;;;;;;;;5024678;28;20448;-69
2023/09/23 13:49:43;;;;;;;7.32;2.80;;;;;;;;;;5019741;28;20035;-68
2023/09/23 13:52:10;;;;;;;4.70;2.40;;;;;;;;;;5021542;28;20037;-69
2023/09/23 13:54:36;;;;;;;4.47;2.80;;;;;;;;;;5020400;28;20056;-67
2023/09/23 13:57:02;;;;;;;4.55;2.70;;;;;;;;;;5021057;28;20025;-69
2023/09/23 13:59:28;;;;;;;5.25;2.78;;;;;;;;;;5020099;28;20422;-69
2023/09/23 14:01:54;;;;;;;6.63;3.53;;;;;;;;;;5019616;28;20025;-68
2023/09/23 14:04:20;;;;;;;11.38;3.03;;;;;;;;;;5020668;28;20128;-68
2023/09/23 14:06:46;;;;;;;6.43;3.17;;;;;;;;;;5015439;28;20485;-69
2023/09/23 14:09:13;;;;;;;6.32;2.65;;;;;;;;;;5023788;28;20487;-69
2023/09/23 14:11:39;;;;;;;6.28;2.47;;;;;;;;;;5022115;28;20107;-69
2023/09/23 14:14:05;;;;;;;5.00;2.40;;;;;;;;;;5018823;28;20029;-68
2023/09/23 14:16:32;;;;;;;6.47;2.72;;;;;;;;;;5021491;28;20033;-68
2023/09/23 14:18:58;;;;;;;11.27;4.00;;;;;;;;;;5017513;28;20034;-68
2023/09/23 14:21:24;;;;;;;5.90;3.13;;;;;;;;;;5023598;28;20050;-70
2023/09/23 14:23:51;;;;;;;6.07;2.97;;;;;;;;;;5020164;28;20060;-69
2023/09/23 14:26:17;;;;;;;4.32;2.90;;;;;;;;;;5020988;28;20382;-69
2023/09/23 14:28:45;;;;;;;7.22;3.25;;;;;;;;;;5021522;28;20056;-70
2023/09/23 14:31:12;;;;;;;9.05;3.83;;;;;;;;;;5021753;28;20036;-69
2023/09/23 14:33:38;;;;;;;5.47;3.08;;;;;;;;;;5022206;28;20040;-69
2023/09/23 14:36:05;;;;;;;7.28;2.92;;;;;;;;;;5018786;28;20083;-69
2023/09/23 14:38:31;;;;;;;5.25;3.40;;;;;;;;;;5020916;28;20140;-68
2023/09/23 14:40:57;;;;;;;6.68;3.30;;;;;;;;;;5027684;28;20029;-69